< < Back
Terminal Aerodrome Forecast


Current Version              Previous Versions:   1  2  3  4  5  6  7  8  9  

Terminal Aerodrome Forecast

017
FTUS42 KGSP 072328
TAFGSP
TAF
KGSP 072328Z 0800/0824 33004KT P6SM FEW250
     FM081300 22005KT P6SM SCT050 BKN100
     FM081700 22010G17KT P6SM BKN045 PROB30 0818/0823 4SM -SHRA
      BKN025
     FM082300 25011G19KT P6SM BKN080=

Latest METAR

608
SAUS70 KWBC 080200 RRF
MTRGSP
METAR KGSP 080153Z 35003KT 10SM CLR 06/M06 A2992 RMK AO2 SLP134
T00611056


USA.gov is the U.S. government's official web portal to all federal, state and local government web resources and services.